Latest Weather Observations for Parafield

IDS60901

Issued at 9:05 pm CDT Friday 31 October 2014 (issued every 10 minutes, with the page automatically refreshed every 10 minutes)

About weather observations | Map of Adelaide area stations | Latest observations for Adelaide area | Other Formats
Station Details ID: 023013 Name: PARAFIELD AIRPORT Lat: -34.80 Lon: 138.63 Height: 9.5 m
Data from the previous 72 hours. | See also: Recent months at Parafield
Date/Time
CDT
Tmp

°C
App
Tmp
°C
Dew
Point
°C
Rel
Hum
%
Delta-T

°C
Wind Press
QNH
hPa
Press
MSL
hPa
Rain
since
9 am
mm
Dir
 
Spd
km/h
Gust
km/h
Spd
kts
Gust
kts
31/09:00pm 17.9 14.7 13.0 73 2.8 SSW 22 33 12 18 1006.2 1006.2 0.0
31/08:38pm 17.7 12.5 12.8 73 2.7 SW 32 46 17 25 1006.0 1006.0 0.0
31/08:30pm 17.7 12.4 13.0 74 2.6 SW 33 46 18 25 1005.8 1005.8 0.0
31/08:00pm 18.4 14.9 14.5 78 2.3 SW 26 35 14 19 1004.9 1004.9 0.0
31/07:30pm 18.1 14.4 14.0 77 2.4 SW 26 37 14 20 1003.4 1003.4 0.0
31/07:15pm 18.5 14.9 14.2 76 2.5 SW 26 41 14 22 1002.8 1002.8 0.0
31/07:00pm 19.1 14.1 14.1 73 2.9 SSW 33 48 18 26 1002.7 1002.7 0.0
31/06:30pm 23.0 18.1 11.4 48 6.5 SW 28 33 15 18 1002.0 1002.0 0.0
31/06:00pm 24.1 18.9 10.4 42 7.6 SSW 28 39 15 21 1001.5 1001.5 0.0
31/05:30pm 24.6 19.4 10.1 40 8.0 SSW 28 37 15 20 1000.7 1000.7 0.0
31/05:00pm 25.3 19.8 9.2 36 8.8 SSW 28 39 15 21 1000.6 1000.6 0.0
31/04:32pm 25.6 18.9 7.2 31 9.7 SSW 32 50 17 27 1000.2 1000.2 0.0
31/04:30pm 25.6 18.2 6.7 30 9.9 SSW 35 50 19 27 1000.2 1000.2 0.0
31/04:00pm 28.6 21.8 7.8 27 11.3 SW 33 48 18 26 999.7 999.7 0.0
31/03:30pm 33.0 26.0 3.9 16 15.2 WSW 30 39 16 21 999.8 999.8 0.0
31/03:00pm 32.4 26.9 4.2 17 14.8 WSW 22 32 12 17 1000.3 1000.3 0.0
31/02:30pm 33.6 26.9 3.4 15 15.7 W 28 35 15 19 1001.0 1001.0 0.0
31/02:00pm 33.2 25.8 4.0 16 15.2 W 32 43 17 23 1001.3 1001.3 0.0
31/01:30pm 34.4 26.4 5.8 17 15.5 WNW 37 48 20 26 1001.1 1001.1 0.0
31/01:00pm 35.0 27.5 4.5 15 16.2 NW 33 48 18 26 1001.3 1001.3 0.0
31/12:30pm 34.0 26.9 6.3 18 15.1 WNW 33 43 18 23 1001.5 1001.5 0.0
31/12:00pm 34.7 27.8 2.3 13 16.6 WNW 28 39 15 21 1002.0 1002.0 0.0
31/11:30am 35.5 29.2 1.8 12 17.3 N 24 35 13 19 1002.7 1002.7 0.0
31/11:00am 32.8 25.8 1.8 14 15.5 N 28 35 15 19 1003.3 1003.3 0.0
31/10:30am 31.3 24.2 1.6 15 14.8 NNE 28 37 15 20 1003.7 1003.7 0.0
31/10:00am 29.4 22.2 1.0 16 13.7 NNE 28 39 15 21 1004.0 1004.0 0.0
31/09:30am 28.4 20.6 1.8 18 13.0 NNE 32 41 17 22 1004.6 1004.6 0.0
31/09:00am 27.8 19.9 1.3 18 12.8 NNE 32 41 17 22 1004.9 1004.9 0.0
31/08:30am 26.7 18.7 1.9 20 12.0 NNE 33 44 18 24 1005.1 1005.1 0.0
31/08:00am 26.4 19.8 2.3 21 11.7 NE 26 37 14 20 1005.4 1005.4 0.0
31/07:30am 24.4 17.8 1.9 23 10.7 NE 26 35 14 19 1005.5 1005.5 0.0
31/07:00am 23.0 16.0 1.9 25 9.9 NE 28 35 15 19 1005.5 1005.5 0.0
31/06:30am 21.7 15.8 1.9 27 9.2 NE 22 32 12 17 1005.8 1005.8 0.0
31/06:00am 20.8 15.8 3.5 32 8.3 NNE 19 26 10 14 1005.9 1005.9 0.0
31/05:47am 17.5 14.3 7.0 50 5.3 N 13 24 7 13 1006.0 1006.0 0.0
31/05:30am 11.9 10.3 7.8 76 2.0 WNW 6 7 3 4 1006.2 1006.2 0.0
31/05:00am 12.0 10.2 7.9 76 2.0 WSW 7 9 4 5 1006.9 1006.9 0.0
31/04:30am 12.1 10.3 8.0 76 2.0 SSW 7 9 4 5 1007.3 1007.3 0.0
31/04:00am 14.7 11.6 7.3 61 3.6 N 13 17 7 9 1007.5 1007.5 0.0
31/03:30am 13.7 12.5 8.1 69 2.8 NNW 4 7 2 4 1007.5 1007.5 0.0
31/03:00am 13.5 12.0 8.4 71 2.6 SW 6 9 3 5 1008.0 1008.0 0.0
31/02:30am 13.7 11.8 7.5 66 3.0 NW 7 7 4 4 1008.3 1008.3 0.0
31/02:00am 15.0 13.0 8.5 65 3.3 N 9 11 5 6 1008.7 1008.7 0.0
31/01:30am 15.3 13.3 8.8 65 3.3 W 9 13 5 7 1009.6 1009.6 0.0
31/01:00am 15.7 12.9 8.4 62 3.7 W 13 15 7 8 1010.0 1010.0 0.0
31/12:30am 16.2 16.0 8.9 62 3.8 CALM 0 0 0 0 1010.1 1010.1 0.0
31/12:00am 16.8 15.3 9.2 61 3.9 NNW 7 9 4 5 1010.4 1010.4 0.0
 
Date/Time
CDT
Tmp

°C
App
Tmp
°C
Dew
Point
°C
Rel
Hum
%
Delta-T

°C
Wind Press
QNH
hPa
Press
MSL
hPa
Rain
since
9 am
mm
Dir
 
Spd
km/h
Gust
km/h
Spd
kts
Gust
kts
30/11:30pm 17.4 15.6 9.3 59 4.2 N 9 11 5 6 1010.8 1010.8 0.0
30/11:00pm 16.8 14.6 6.0 49 5.3 ENE 7 9 4 5 1011.1 1011.1 0.0
30/10:30pm 16.2 15.2 5.5 49 5.1 CALM 0 0 0 0 1011.6 1011.6 0.0
30/10:00pm 16.1 15.1 5.4 49 5.1 CALM 0 0 0 0 1011.9 1011.9 0.0
30/09:30pm 18.0 15.6 4.2 40 6.5 SE 6 7 3 4 1011.9 1011.9 0.0
30/09:00pm 18.1 15.8 4.7 41 6.4 S 6 7 3 4 1011.9 1011.9 0.0
30/08:30pm 17.7 14.9 3.2 38 6.7 WSW 7 9 4 5 1011.6 1011.6 0.0
30/08:00pm 19.4 16.5 1.4 30 8.1 SSW 6 7 3 4 1011.4 1011.4 0.0
30/07:30pm 20.4 16.9 1.3 28 8.7 SSW 9 11 5 6 1011.4 1011.4 0.0
30/07:00pm 22.7 19.5 2.8 27 9.5 SW 9 9 5 5 1011.5 1011.5 0.0
30/06:30pm 23.4 19.6 3.9 28 9.5 SSW 13 17 7 9 1011.6 1011.6 0.0
30/06:00pm 23.7 20.4 6.5 33 8.8 SSW 13 17 7 9 1011.8 1011.8 0.0
30/05:30pm 23.5 20.1 7.6 36 8.3 S 15 19 8 10 1012.1 1012.1 0.0
30/05:00pm 24.1 19.9 7.3 34 8.8 SW 19 22 10 12 1012.2 1012.2 0.0
30/04:30pm 25.2 20.0 8.7 35 8.9 WSW 26 32 14 17 1012.2 1012.2 0.0
30/04:00pm 26.8 22.5 7.8 30 10.2 WSW 20 24 11 13 1011.9 1011.9 0.0
30/03:30pm 26.5 23.5 1.7 20 11.9 N 7 11 4 6 1012.2 1012.2 0.0
30/03:00pm 26.9 23.9 2.1 20 12.0 S 7 13 4 7 1012.8 1012.8 0.0
30/02:30pm 26.1 22.8 6.2 28 10.3 W 13 19 7 10 1013.3 1013.3 0.0
30/02:00pm 25.0 21.1 7.2 32 9.3 WSW 17 24 9 13 1013.9 1013.9 0.0
30/01:30pm 24.2 21.4 8.6 37 8.4 SW 13 20 7 11 1014.2 1014.2 0.0
30/01:00pm 23.4 19.8 9.8 42 7.4 WSW 19 24 10 13 1014.5 1014.5 0.0
30/12:30pm 23.7 20.4 9.7 41 7.6 WSW 17 22 9 12 1014.8 1014.8 0.0
30/12:00pm 22.9 21.1 7.8 38 7.9 W 7 13 4 7 1015.1 1015.1 0.0
30/11:30am 22.5 20.5 8.6 41 7.4 NNW 9 15 5 8 1015.7 1015.7 0.0
30/11:00am 21.0 19.1 8.9 46 6.4 WSW 9 15 5 8 1016.0 1016.0 0.0
30/10:30am 19.9 18.5 9.5 51 5.5 W 7 11 4 6 1016.2 1016.2 0.0
30/10:00am 19.4 17.6 9.6 53 5.2 ENE 9 15 5 8 1015.9 1015.9 0.0
30/09:30am 18.5 17.3 10.3 59 4.4 ENE 7 11 4 6 1016.4 1016.4 0.0
30/09:00am 17.5 15.8 9.9 61 4.0 S 9 13 5 7 1016.7 1016.7 0.0
30/08:30am 16.2 14.9 9.8 66 3.3 S 7 11 4 6 1017.2 1017.2 0.0
30/08:00am 14.5 13.4 9.9 74 2.4 WSW 6 7 3 4 1017.0 1017.0 0.0
30/07:30am 12.7 11.5 10.2 85 1.3 SW 7 11 4 6 1016.8 1016.8 0.0
30/07:00am 10.7 8.6 9.6 93 0.6 NNE 11 13 6 7 1015.7 1015.7 0.0
30/06:30am 7.4 5.7 6.0 91 0.6 NNE 4 6 2 3 1016.0 1016.0 0.0
30/06:00am 9.4 7.3 8.2 92 0.6 NE 9 11 5 6 1015.7 1015.7 0.0
30/05:30am 9.1 6.9 8.0 93 0.5 S 9 13 5 7 1016.3 1016.3 0.0
30/05:00am 8.5 6.2 7.4 93 0.5 S 9 11 5 6 1016.0 1016.0 0.0
30/04:30am 9.0 8.1 7.6 91 0.7 ENE 2 7 1 4 1015.4 1015.4 0.0
30/04:00am 9.6 9.3 8.5 93 0.5 CALM 0 0 0 0 1015.5 1015.5 0.0
30/03:30am 9.3 8.5 8.1 92 0.6 NE 2 6 1 3 1015.4 1015.4 0.0
30/03:00am 9.6 7.9 7.5 87 1.0 NE 6 7 3 4 1015.6 1015.6 0.0
30/02:30am 10.8 9.2 8.7 87 1.0 NNE 7 9 4 5 1015.9 1015.9 0.0
30/02:00am 11.1 10.9 9.2 88 0.9 CALM 0 6 0 3 1016.2 1016.2 0.0
30/01:30am 12.5 11.2 9.9 84 1.3 NNE 7 11 4 6 1016.5 1016.5 0.0
30/01:00am 12.0 10.6 9.4 84 1.3 NNE 7 9 4 5 1016.9 1016.9 0.0
30/12:30am 12.4 10.8 8.7 78 1.8 NE 7 9 4 5 1016.8 1016.8 0.0
30/12:00am 13.6 11.8 9.6 77 2.0 ENE 9 11 5 6 1017.0 1017.0 0.0
 
Date/Time
CDT
Tmp

°C
App
Tmp
°C
Dew
Point
°C
Rel
Hum
%
Delta-T

°C
Wind Press
QNH
hPa
Press
MSL
hPa
Rain
since
9 am
mm
Dir
 
Spd
km/h
Gust
km/h
Spd
kts
Gust
kts
29/11:30pm 14.4 12.3 9.6 73 2.5 ESE 11 11 6 6 1017.0 1017.0 0.0
29/11:00pm 14.6 13.3 10.0 74 2.4 SSW 7 9 4 5 1017.2 1017.2 0.0
29/10:30pm 14.3 12.9 9.5 73 2.5 SSW 7 11 4 6 1017.3 1017.3 0.0
29/10:00pm 14.8 13.1 9.8 72 2.6 S 9 13 5 7 1017.2 1017.2 0.0
29/09:30pm 16.1 13.7 10.2 68 3.1 SW 13 20 7 11 1017.1 1017.1 0.0
29/09:00pm 16.8 14.2 9.5 62 3.8 SW 13 19 7 10 1016.8 1016.8 0.0
29/08:30pm 16.7 14.1 9.4 62 3.8 SSW 13 15 7 8 1016.8 1016.8 0.0
29/08:00pm 17.4 14.9 9.6 60 4.1 SSW 13 17 7 9 1016.8 1016.8 0.0
29/07:30pm 18.6 15.5 10.2 58 4.5 SW 17 20 9 11 1016.5 1016.5 0.0
29/07:00pm 20.3 17.6 10.4 53 5.4 SW 15 20 8 11 1016.1 1016.1 0.0
29/06:30pm 20.5 17.4 8.8 47 6.1 S 15 20 8 11 1016.1 1016.1 0.0
29/06:00pm 21.4 17.9 8.7 44 6.7 SSW 17 20 9 11 1016.0 1016.0 0.0
29/05:30pm 23.7 19.7 8.9 39 7.9 WSW 20 28 11 15 1016.0 1016.0 0.0
29/05:00pm 23.9 20.4 8.7 38 8.1 WSW 17 26 9 14 1015.9 1015.9 0.0
29/04:30pm 23.3 19.4 8.6 39 7.8 WSW 19 28 10 15 1016.0 1016.0 0.0
29/04:00pm 24.2 20.2 8.2 36 8.5 WSW 19 26 10 14 1016.0 1016.0 0.0
29/03:30pm 23.7 20.0 7.8 36 8.4 WSW 17 24 9 13 1016.4 1016.4 0.0
29/03:00pm 23.8 20.6 8.6 38 8.1 WSW 15 24 8 13 1016.8 1016.8 0.0
29/02:30pm 23.2 19.4 8.9 40 7.6 W 19 28 10 15 1017.3 1017.3 0.0
29/02:00pm 22.0 18.5 10.2 47 6.4 SW 19 22 10 12 1017.6 1017.6 0.0
29/01:30pm 21.9 18.4 11.0 50 6.0 W 20 30 11 16 1018.0 1018.0 0.0
29/01:00pm 21.3 17.5 11.3 53 5.5 WSW 22 30 12 16 1018.2 1018.2 0.0
29/12:30pm 22.4 19.6 11.2 49 6.2 W 17 35 9 19 1018.3 1018.3 0.0
29/12:00pm 22.3 19.8 9.8 45 6.8 WNW 13 20 7 11 1018.7 1018.7 0.0
29/11:30am 21.7 19.0 8.9 44 6.8 N 13 24 7 13 1019.0 1019.0 0.0
29/11:00am 20.4 17.7 9.0 48 6.0 N 13 20 7 11 1019.4 1019.4 0.0
29/10:30am 19.6 17.0 9.2 51 5.5 N 13 20 7 11 1019.7 1019.7 0.0
29/10:00am 18.9 16.5 10.2 57 4.7 N 13 17 7 9 1020.1 1020.1 0.0
29/09:30am 18.3 15.9 10.2 59 4.3 NNE 13 17 7 9 1020.2 1020.2 0.0
29/09:00am 16.8 14.2 10.6 67 3.3 N 15 19 8 10 1020.3 1020.3 0.0
29/08:30am 16.4 14.4 11.6 73 2.6 N 13 17 7 9 1020.3 1020.3 0.0
29/08:00am 15.2 13.4 10.8 75 2.3 NNE 11 15 6 8 1020.4 1020.4 0.0
29/07:30am 13.6 12.0 10.2 80 1.8 NE 9 13 5 7 1020.3 1020.3 0.0
29/07:00am 11.5 11.4 9.4 87 1.1 CALM 0 6 0 3 1020.2 1020.2 0.0
29/06:30am 11.5 10.0 9.1 85 1.2 NE 7 9 4 5 1020.0 1020.0 0.0
29/06:00am 12.1 10.8 9.3 83 1.4 NNE 6 7 3 4 1019.8 1019.8 0.0
29/05:30am 12.3 10.9 9.5 83 1.4 N 7 9 4 5 1019.6 1019.6 0.0
29/05:00am 12.9 11.2 9.9 82 1.5 NNW 9 9 5 5 1019.4 1019.4 0.0
29/04:30am 11.6 10.7 9.3 86 1.2 NNW 4 6 2 3 1019.3 1019.3 0.0
29/04:00am 11.0 10.4 9.1 88 0.9 NNE 2 7 1 4 1019.4 1019.4 0.0
29/03:30am 11.6 11.4 9.2 85 1.2 CALM 0 0 0 0 1019.4 1019.4 0.0
29/03:00am 12.4 11.1 10.0 85 1.2 NE 7 9 4 5 1019.4 1019.4 0.0
29/02:30am 10.1 9.7 8.2 88 0.9 CALM 0 0 0 0 1019.6 1019.6 0.0
29/02:00am 11.7 9.5 9.3 85 1.2 NE 11 13 6 7 1019.6 1019.6 0.0
29/01:30am 11.1 8.7 8.7 85 1.2 NE 11 11 6 6 1019.8 1019.8 0.0
29/01:00am 11.4 9.5 9.1 86 1.1 NNE 9 11 5 6 1020.1 1020.1 0.0
29/12:30am 11.5 9.6 9.2 86 1.1 NE 9 9 5 5 1020.1 1020.1 0.0
29/12:00am 12.2 12.2 9.9 86 1.2 CALM 0 4 0 2 1020.0 1020.0 0.0
 
Date/Time
CDT
Tmp

°C
App
Tmp
°C
Dew
Point
°C
Rel
Hum
%
Delta-T

°C
Wind Press
QNH
hPa
Press
MSL
hPa
Rain
since
9 am
mm
Dir
 
Spd
km/h
Gust
km/h
Spd
kts
Gust
kts
28/11:30pm 12.4 11.7 10.1 86 1.2 SSE 4 9 2 5 1019.9 1019.9 0.0
28/11:00pm 13.0 13.2 10.7 86 1.2 CALM 0 6 0 3 1020.1 1020.1 0.0
28/10:30pm 13.3 11.8 10.7 84 1.4 S 9 9 5 5 1020.2 1020.2 0.0
28/10:00pm 13.5 12.0 10.5 82 1.6 S 9 11 5 6 1020.2 1020.2 0.0
28/09:30pm 14.3 12.1 10.9 80 1.8 S 13 17 7 9 1020.0 1020.0 0.0

Latest Capital City Observations: Canberra | Sydney | Melbourne | Brisbane | Adelaide | Perth | Hobart | Darwin

Other Formats:

Comma delimited format used in spreadsheet applications
http://www.bom.gov.au/fwo/IDS60901/IDS60901.95677.axf

JavaScript Object Notation format (JSON) in row-major order
http://www.bom.gov.au/fwo/IDS60901/IDS60901.95677.json